createdAt,value
2018-08-23T00:01:36.508Z,99988.61
2018-08-23T00:04:12.193Z,99990.00
2018-08-23T00:06:52.500Z,99997.50
2018-08-23T00:09:22.092Z,99990.03
2018-08-23T00:11:51.685Z,99990.99
2018-08-23T00:14:21.288Z,99988.29
2018-08-23T00:16:50.935Z,99987.91
2018-08-23T00:19:20.532Z,99989.52
2018-08-23T00:21:51.053Z,99979.50
2018-08-23T00:24:21.673Z,99986.83
2018-08-23T00:26:59.721Z,99981.36
2018-08-23T00:29:32.391Z,99986.37
2018-08-23T00:32:04.910Z,99979.32
2018-08-23T00:34:37.693Z,99983.39
2018-08-23T00:37:08.000Z,99976.91
2018-08-23T00:39:37.575Z,99978.46
2018-08-23T00:42:10.171Z,99979.09
2018-08-23T00:44:55.592Z,99980.97
2018-08-23T00:47:29.884Z,99975.17
2018-08-23T00:49:59.584Z,99976.25
2018-08-23T00:52:41.844Z,99979.94
2018-08-23T00:55:17.064Z,99975.29
2018-08-23T00:57:47.292Z,99973.58
2018-08-23T01:00:23.202Z,99978.05
2018-08-23T01:02:55.512Z,99975.41
2018-08-23T01:05:30.111Z,99977.17
2018-08-23T01:07:59.714Z,99978.91
2018-08-23T01:10:29.291Z,99977.45
2018-08-23T01:13:00.547Z,99976.23
2018-08-23T01:15:30.735Z,99981.92
2018-08-23T01:18:12.676Z,99976.14
2018-08-23T01:20:42.950Z,99970.56
2018-08-23T01:23:12.524Z,99974.24
2018-08-23T01:25:43.325Z,99974.30
2018-08-23T01:28:12.993Z,99968.89
2018-08-23T01:30:42.931Z,99967.45
2018-08-23T01:33:13.815Z,99967.69
2018-08-23T01:35:44.515Z,99965.74
2018-08-23T01:38:14.628Z,99957.87
2018-08-23T01:40:44.412Z,99961.02
2018-08-23T01:43:13.957Z,99887.95
2018-08-23T01:45:43.487Z,99957.13
2018-08-23T01:48:13.001Z,99948.23
2018-08-23T01:50:42.535Z,99947.59
2018-08-23T01:53:12.037Z,99955.69
2018-08-23T01:55:41.638Z,99945.17
2018-08-23T01:58:11.275Z,99951.38
2018-08-23T02:00:40.773Z,99950.16
2018-08-23T02:03:10.368Z,99948.33
2018-08-23T02:05:43.191Z,99947.87
2018-08-23T02:08:12.703Z,99946.59
2018-08-23T02:10:42.272Z,99947.48
2018-08-23T02:13:16.011Z,99939.19
2018-08-23T02:15:51.380Z,99933.52
2018-08-23T02:18:20.913Z,99944.02
2018-08-23T02:20:55.700Z,99937.25
2018-08-23T02:23:25.271Z,99937.66
2018-08-23T02:25:54.798Z,99940.06
2018-08-23T02:28:24.293Z,99937.18
2018-08-23T02:30:55.646Z,99942.31
2018-08-23T02:33:25.964Z,99943.18
2018-08-23T02:36:22.329Z,99938.91
2018-08-23T02:39:02.028Z,99935.75
2018-08-23T02:41:31.779Z,99938.79
2018-08-23T02:44:01.400Z,99937.86
2018-08-23T02:46:32.766Z,99938.91
2018-08-23T02:49:02.357Z,99935.06
2018-08-23T02:51:42.097Z,99939.23
2018-08-23T02:54:13.446Z,99936.21
2018-08-23T02:56:48.073Z,99937.86
2018-08-23T02:59:17.612Z,99933.50
2018-08-23T03:01:48.227Z,99941.38
2018-08-23T03:04:22.641Z,99934.09
2018-08-23T03:06:53.098Z,99943.72
2018-08-23T03:09:24.573Z,99939.87
2018-08-23T03:11:55.191Z,99937.07
2018-08-23T03:14:25.596Z,99941.16
2018-08-23T03:17:33.672Z,99938.03
2018-08-23T03:20:10.947Z,99936.27
2018-08-23T03:22:40.983Z,99934.83
2018-08-23T03:25:12.680Z,99942.41
2018-08-23T03:27:42.304Z,99944.05
2018-08-23T03:30:12.972Z,99944.59
2018-08-23T03:32:42.563Z,99936.82
2018-08-23T03:35:12.081Z,99942.87
2018-08-23T03:37:41.715Z,99936.50
2018-08-23T03:40:12.612Z,99941.21
2018-08-23T03:42:42.318Z,99945.09
2018-08-23T03:45:16.927Z,99944.67
2018-08-23T03:47:53.687Z,99943.59
2018-08-23T03:50:23.179Z,99952.45
2018-08-23T03:52:53.936Z,99948.37
2018-08-23T03:55:24.548Z,99950.84
2018-08-23T03:57:58.158Z,99948.61
2018-08-23T04:00:32.847Z,99957.72
2018-08-23T04:03:02.565Z,99964.80
2018-08-23T04:05:32.153Z,99958.16
2018-08-23T04:08:01.712Z,99963.37
2018-08-23T04:10:31.244Z,99967.45
2018-08-23T04:13:00.817Z,99973.54
2018-08-23T04:15:31.454Z,99962.38
2018-08-23T04:18:09.671Z,99968.84
2018-08-23T04:20:49.004Z,99964.99
2018-08-23T04:23:18.483Z,99965.92
2018-08-23T04:25:48.104Z,99967.61
2018-08-23T04:28:17.656Z,99970.54
2018-08-23T04:30:47.220Z,99971.31
2018-08-23T04:33:16.817Z,99966.95
2018-08-23T04:35:46.419Z,99966.12
2018-08-23T04:38:15.994Z,99967.02
2018-08-23T04:40:53.257Z,99966.34
2018-08-23T04:43:22.862Z,99963.17
2018-08-23T04:45:52.413Z,99965.82
2018-08-23T04:48:21.927Z,99886.14
2018-08-23T04:50:51.452Z,99962.88
2018-08-23T04:53:21.114Z,99973.85
2018-08-23T04:55:50.727Z,99970.58
2018-08-23T04:58:20.305Z,99976.52
2018-08-23T05:00:49.942Z,99982.21
2018-08-23T05:03:19.708Z,99992.50
2018-08-23T05:05:49.172Z,99993.05
2018-08-23T05:08:18.823Z,99993.52
2018-08-23T05:10:48.400Z,99996.73
2018-08-23T05:13:18.032Z,100000.52
2018-08-23T05:15:47.545Z,100002.74
2018-08-23T05:18:17.333Z,100001.55
2018-08-23T05:20:47.757Z,99999.78
2018-08-23T05:23:17.916Z,99999.39
2018-08-23T05:25:47.827Z,99999.48
2018-08-23T05:28:19.659Z,99999.80
2018-08-23T05:30:49.975Z,100005.15
2018-08-23T05:33:20.640Z,100002.87
2018-08-23T05:35:50.317Z,100006.30
2018-08-23T05:38:20.428Z,100000.02
2018-08-23T05:41:01.430Z,100010.78
2018-08-23T05:43:30.959Z,100010.29
2018-08-23T05:46:01.045Z,100001.83
2018-08-23T05:48:30.922Z,100006.30
2018-08-23T05:51:04.776Z,100003.92
2018-08-23T05:53:38.656Z,100008.66
2018-08-23T05:56:08.933Z,100010.13
2018-08-23T05:58:38.611Z,100005.88
2018-08-23T06:01:08.364Z,100004.84
2018-08-23T06:03:38.214Z,100008.17
2018-08-23T06:06:07.983Z,100007.83
2018-08-23T06:08:38.129Z,100010.89
2018-08-23T06:11:11.291Z,100004.38
2018-08-23T06:13:41.112Z,100003.19
2018-08-23T06:16:10.758Z,100003.66
2018-08-23T06:18:40.339Z,99998.92
2018-08-23T06:21:09.885Z,100003.59
2018-08-23T06:26:42.587Z,99995.88
2018-08-23T06:29:14.817Z,99995.34
2018-08-23T06:32:04.803Z,100002.56
2018-08-23T06:34:35.938Z,99994.54
2018-08-23T06:37:05.632Z,100001.01
2018-08-23T06:39:35.153Z,100002.02
2018-08-23T06:42:05.032Z,100004.48
2018-08-23T06:44:52.190Z,100010.91
2018-08-23T06:47:22.922Z,100009.23
2018-08-23T06:49:53.569Z,100011.59
2018-08-23T06:52:30.475Z,100010.57
2018-08-23T06:55:00.071Z,100011.00
2018-08-23T06:57:39.280Z,100015.50
2018-08-23T07:00:09.040Z,100016.45
2018-08-23T07:02:42.673Z,100018.47
2018-08-23T07:05:12.255Z,100025.08
2018-08-23T07:07:41.795Z,100021.63
2018-08-23T07:10:12.801Z,100030.37
2018-08-23T07:12:42.366Z,100026.75
2018-08-23T07:15:12.063Z,100029.30
2018-08-23T07:17:41.763Z,100023.27
2018-08-23T07:20:17.175Z,100022.34
2018-08-23T07:22:46.796Z,100023.64
2018-08-23T07:25:17.550Z,100028.16
2018-08-23T07:27:47.381Z,100030.83
2018-08-23T07:30:18.779Z,100023.61
2018-08-23T07:32:49.625Z,100028.13
2018-08-23T07:35:20.388Z,100032.44
2018-08-23T07:37:51.350Z,100024.56
2018-08-23T07:40:22.168Z,100023.14
2018-08-23T07:42:53.082Z,100018.73
2018-08-23T07:45:22.656Z,100020.36
2018-08-23T07:47:53.654Z,100018.22
2018-08-23T07:50:23.298Z,100012.04
2018-08-23T07:52:54.071Z,100007.10
2018-08-23T07:55:23.620Z,100011.84
2018-08-23T07:57:53.238Z,100004.86
2018-08-23T08:00:43.775Z,100001.20
2018-08-23T08:03:14.603Z,100007.73
2018-08-23T08:05:45.470Z,100003.88
2018-08-23T08:08:15.117Z,100005.84
2018-08-23T08:10:45.879Z,100002.25
2018-08-23T08:13:15.492Z,100002.53
2018-08-23T08:15:45.047Z,100002.61
2018-08-23T08:18:19.662Z,99993.28
2018-08-23T08:20:55.311Z,99995.27
2018-08-23T08:23:24.980Z,99994.60
2018-08-23T08:25:54.470Z,99983.92
2018-08-23T08:28:24.049Z,99990.12
2018-08-23T08:30:58.240Z,99989.69
2018-08-23T08:33:33.096Z,99988.53
2018-08-23T08:36:03.877Z,99990.61
2018-08-23T08:38:34.036Z,99988.25
2018-08-23T08:41:03.807Z,99979.41
2018-08-23T08:43:33.457Z,99985.11
2018-08-23T08:46:03.027Z,99974.16
2018-08-23T08:48:34.471Z,99978.70
2018-08-23T08:51:21.003Z,99980.27
2018-08-23T08:53:50.843Z,99977.11
2018-08-23T08:56:25.804Z,99972.33
2018-08-23T08:58:55.416Z,99974.48
2018-08-23T09:01:25.028Z,99970.20
2018-08-23T09:03:54.684Z,99968.52
2018-08-23T09:06:29.332Z,99971.52
2018-08-23T09:08:59.176Z,99968.17
2018-08-23T09:11:29.103Z,99963.78
2018-08-23T09:14:02.167Z,99955.56
2018-08-23T09:16:31.799Z,99956.45
2018-08-23T09:19:03.616Z,99959.58
2018-08-23T09:21:33.621Z,99953.14
2018-08-23T09:24:36.858Z,99865.59
2018-08-23T09:27:15.805Z,99946.90
2018-08-23T09:29:45.377Z,99942.70
2018-08-23T09:32:21.451Z,99943.23
2018-08-23T09:34:55.164Z,99931.76
2018-08-23T09:37:24.743Z,99933.96
2018-08-23T09:39:54.279Z,99927.36
2018-08-23T09:42:23.883Z,99929.79
2018-08-23T09:45:04.315Z,99923.00
2018-08-23T09:47:33.955Z,99924.05
2018-08-23T09:50:03.700Z,99918.11
2018-08-23T09:52:35.436Z,99925.16
2018-08-23T09:55:05.080Z,99912.97
2018-08-23T09:57:36.179Z,99915.58
2018-08-23T10:00:08.356Z,99908.98
2018-08-23T10:02:42.938Z,99897.00
2018-08-23T10:05:17.764Z,99903.37
2018-08-23T10:07:52.397Z,99893.80
2018-08-23T10:10:27.984Z,99886.91
2018-08-23T10:13:02.740Z,99890.57
2018-08-23T10:15:37.371Z,99885.97
2018-08-23T10:18:11.882Z,99885.75
2018-08-23T10:20:46.872Z,99880.22
2018-08-23T10:23:22.507Z,99877.16
2018-08-23T10:25:53.287Z,99778.25
2018-08-23T10:28:24.255Z,99876.49
2018-08-23T10:30:54.201Z,99873.01
2018-08-23T10:33:24.015Z,99861.42
2018-08-23T10:35:57.699Z,99855.69
2018-08-23T10:38:28.460Z,99869.30
2018-08-23T10:41:03.120Z,99858.47
2018-08-23T10:43:38.140Z,99847.00
2018-08-23T10:46:07.883Z,99853.89
2018-08-23T10:48:37.594Z,99852.48
2018-08-23T10:51:07.532Z,99847.44
2018-08-23T10:53:37.208Z,99846.47
2018-08-23T10:56:06.856Z,99844.09
2018-08-23T10:58:36.528Z,99840.23
2018-08-23T11:01:06.111Z,99840.17
2018-08-23T11:03:35.711Z,99826.01
2018-08-23T11:06:05.473Z,99821.24
2018-08-23T11:08:36.678Z,99824.70
2018-08-23T11:11:11.315Z,99817.45
2018-08-23T11:13:47.529Z,99818.57
2018-08-23T11:16:22.418Z,99813.38
2018-08-23T11:18:57.206Z,99807.92
2018-08-23T11:21:26.817Z,99807.64
2018-08-23T11:23:56.480Z,99702.48
2018-08-23T11:26:27.137Z,99794.59
2018-08-23T11:28:56.876Z,99791.00
2018-08-23T11:31:30.468Z,99784.32
2018-08-23T11:34:00.143Z,99774.62
2018-08-23T11:36:29.807Z,99778.63
2018-08-23T11:38:59.467Z,99773.49
2018-08-23T11:41:44.945Z,99766.19
2018-08-23T11:44:14.738Z,99760.52
2018-08-23T11:46:44.047Z,99760.41
2018-08-23T11:49:13.398Z,99761.12
2018-08-23T11:51:42.816Z,99648.98
2018-08-23T11:54:12.271Z,99751.86
2018-08-23T11:56:41.667Z,99738.03
2018-08-23T11:59:10.973Z,99730.08
2018-08-23T12:01:40.491Z,99722.27
2018-08-23T12:04:09.817Z,99718.48
2018-08-23T12:06:39.351Z,99720.02
2018-08-23T12:09:08.624Z,99603.16
2018-08-23T12:11:38.072Z,99706.83
2018-08-23T12:14:07.431Z,99701.97
2018-08-23T12:16:36.777Z,99700.84
2018-08-23T12:19:06.458Z,99701.70
2018-08-23T12:21:35.748Z,99699.47
2018-08-23T12:24:05.120Z,99700.38
2018-08-23T12:26:34.582Z,99694.72
2018-08-23T12:29:09.084Z,99610.19
2018-08-23T12:31:38.727Z,99690.60
2018-08-23T12:34:09.480Z,99684.67
2018-08-23T12:36:43.928Z,99687.34
2018-08-23T12:39:18.505Z,99687.78
2018-08-23T12:41:52.962Z,99680.52
2018-08-23T12:44:22.592Z,99670.98
2018-08-23T12:46:56.269Z,99673.54
2018-08-23T12:49:26.097Z,99666.81
2018-08-23T12:51:55.631Z,99662.70
2018-08-23T12:54:25.292Z,99653.79
2018-08-23T12:56:54.846Z,99650.28
2018-08-23T12:59:24.507Z,99651.34
2018-08-23T13:01:54.112Z,99647.24
2018-08-23T13:04:23.781Z,99646.73
2018-08-23T13:06:53.492Z,99650.51
2018-08-23T13:09:23.209Z,99637.33
2018-08-23T13:11:52.825Z,99639.06
2018-08-23T13:14:22.508Z,99642.27
2018-08-23T13:16:52.128Z,99632.98
2018-08-23T13:19:21.875Z,99626.16
2018-08-23T13:21:57.442Z,99624.77
2018-08-23T13:24:27.021Z,99626.07
2018-08-23T13:26:56.661Z,99623.17
2018-08-23T13:29:26.435Z,99616.39
2018-08-23T13:31:56.686Z,99612.35
2018-08-23T13:34:26.242Z,99615.84
2018-08-23T13:36:55.955Z,99610.88
2018-08-23T13:39:25.533Z,99609.06
2018-08-23T13:41:55.406Z,99610.34
2018-08-23T13:44:24.931Z,99600.56
2018-08-23T13:46:54.503Z,99606.20
2018-08-23T13:49:24.093Z,99602.84
2018-08-23T13:51:53.788Z,99601.06
2018-08-23T13:54:23.482Z,99597.70
2018-08-23T13:56:53.064Z,99591.68
2018-08-23T13:59:22.826Z,99593.36
2018-08-23T14:01:52.461Z,99594.19
2018-08-23T14:04:22.135Z,99593.92
2018-08-23T14:06:51.927Z,99591.95
2018-08-23T14:09:21.665Z,99597.28
2018-08-23T14:11:51.189Z,99591.91
2018-08-23T14:14:20.892Z,99595.13
2018-08-23T14:16:50.660Z,99585.74
2018-08-23T14:19:20.305Z,99583.41
2018-08-23T14:21:49.916Z,99577.52
2018-08-23T14:24:19.800Z,99575.35
2018-08-23T14:26:49.334Z,99578.81
2018-08-23T14:29:19.103Z,99584.64
2018-08-23T14:31:48.649Z,99573.61
2018-08-23T14:34:18.235Z,99580.66
2018-08-23T14:36:48.994Z,99578.88
2018-08-23T14:39:18.691Z,99583.20
2018-08-23T14:41:48.250Z,99489.62
2018-08-23T14:44:17.847Z,99568.42
2018-08-23T14:48:55.498Z,99465.71
2018-08-23T14:51:25.169Z,99572.66
2018-08-23T14:53:54.792Z,99571.26
2018-08-23T14:56:29.538Z,99567.28
2018-08-23T14:58:59.075Z,99567.69
2018-08-23T15:01:28.705Z,99553.86
2018-08-23T15:03:58.314Z,99555.99
2018-08-23T15:06:27.854Z,99553.03
2018-08-23T15:08:57.349Z,99554.23
2018-08-23T15:11:26.964Z,99551.63
2018-08-23T15:13:56.514Z,99555.48
2018-08-23T15:16:26.064Z,99560.08
2018-08-23T15:18:55.576Z,99561.86
2018-08-23T15:21:25.164Z,99550.90
2018-08-23T15:23:54.709Z,99554.77
2018-08-23T15:26:24.444Z,99557.55
2018-08-23T15:28:53.981Z,99551.86
2018-08-23T15:31:23.599Z,99551.63
2018-08-23T15:33:53.096Z,99554.91
2018-08-23T15:36:22.636Z,99557.90
2018-08-23T15:38:52.732Z,99551.03
2018-08-23T15:41:22.361Z,99549.39
2018-08-23T15:43:51.947Z,99557.38
2018-08-23T15:46:21.644Z,99555.52
2018-08-23T15:48:51.216Z,99550.77
2018-08-23T15:51:20.759Z,99538.80
2018-08-23T15:53:50.263Z,99543.33
2018-08-23T15:56:19.861Z,99544.96
2018-08-23T15:58:49.428Z,99544.73
2018-08-23T16:01:18.928Z,99544.59
2018-08-23T16:03:48.587Z,99541.56
2018-08-23T16:06:18.176Z,99542.23
2018-08-23T16:08:51.891Z,99540.07
2018-08-23T16:11:23.463Z,99535.45
2018-08-23T16:13:53.492Z,99545.30
2018-08-23T16:16:28.336Z,99538.22
2018-08-23T16:19:02.968Z,99542.77
2018-08-23T16:21:36.192Z,99544.77
2018-08-23T16:24:05.731Z,99543.00
2018-08-23T16:26:40.347Z,99549.25
2018-08-23T16:29:09.895Z,99552.18
2018-08-23T16:31:39.425Z,99558.37
2018-08-23T16:34:09.055Z,99553.48
2018-08-23T16:36:38.652Z,99557.72
2018-08-23T16:39:08.756Z,99560.72
2018-08-23T16:41:38.413Z,99563.78
2018-08-23T16:44:07.960Z,99563.58
2018-08-23T16:46:37.503Z,99565.59
2018-08-23T16:49:07.224Z,99562.45
2018-08-23T16:51:36.841Z,99573.17
2018-08-23T16:54:06.395Z,99567.55
2018-08-23T16:56:35.890Z,99578.41
2018-08-23T16:59:05.553Z,99577.57
2018-08-23T17:01:35.075Z,99578.03
2018-08-23T17:04:04.660Z,99585.81
2018-08-23T17:06:34.220Z,99585.52
2018-08-23T17:09:04.116Z,99595.67
2018-08-23T17:11:33.660Z,99599.39
2018-08-23T17:14:03.373Z,99597.25
2018-08-23T17:16:38.036Z,99600.88
2018-08-23T17:19:07.662Z,99602.13
2018-08-23T17:21:37.191Z,99605.32
2018-08-23T17:24:06.828Z,99608.06
2018-08-23T17:26:36.424Z,99612.25
2018-08-23T17:29:05.966Z,99611.70
2018-08-23T17:31:35.579Z,99621.30
2018-08-23T17:34:05.189Z,99612.75
2018-08-23T17:36:34.708Z,99621.16
2018-08-23T17:39:04.440Z,99625.59
2018-08-23T17:41:33.939Z,99622.25
2018-08-23T17:44:03.491Z,99628.38
2018-08-23T17:46:33.027Z,99631.77
2018-08-23T17:49:02.699Z,99637.61
2018-08-23T17:51:32.296Z,99636.25
2018-08-23T17:54:01.831Z,99644.88
2018-08-23T17:56:31.379Z,99648.61
2018-08-23T17:59:00.922Z,99647.94
2018-08-23T18:01:30.437Z,99655.80
2018-08-23T18:04:00.003Z,99660.59
2018-08-23T18:06:29.573Z,99664.80
2018-08-23T18:08:59.228Z,99672.12
2018-08-23T18:11:28.823Z,99675.88
2018-08-23T18:13:58.344Z,99671.95
2018-08-23T18:16:32.989Z,99680.09
2018-08-23T18:19:03.012Z,99686.27
2018-08-23T18:21:32.543Z,99683.80
2018-08-23T18:24:02.119Z,99694.00
2018-08-23T18:26:31.724Z,99697.50
2018-08-23T18:29:01.328Z,99704.45
2018-08-23T18:31:30.829Z,99712.45
2018-08-23T18:34:00.351Z,99708.38
2018-08-23T18:36:29.967Z,99709.30
2018-08-23T18:38:59.579Z,99718.34
2018-08-23T18:41:29.108Z,99716.12
2018-08-23T18:43:58.703Z,99724.80
2018-08-23T18:46:28.255Z,99725.10
2018-08-23T18:48:59.567Z,99730.29
2018-08-23T18:51:31.255Z,99727.75
2018-08-23T18:54:01.230Z,99724.81
2018-08-23T18:56:31.187Z,99728.88
2018-08-23T18:59:00.719Z,99728.59
2018-08-23T19:01:30.419Z,99731.38
2018-08-23T19:03:59.932Z,99731.35
2018-08-23T19:06:34.461Z,99728.91
2018-08-23T19:09:05.832Z,99726.36
2018-08-23T19:11:35.439Z,99730.63
2018-08-23T19:14:04.959Z,99737.01
2018-08-23T19:16:39.496Z,99737.81
2018-08-23T19:19:09.121Z,99742.09
2018-08-23T19:21:38.863Z,99751.12
2018-08-23T19:24:08.429Z,99743.48
2018-08-23T19:26:37.971Z,99752.39
2018-08-23T19:29:07.568Z,99753.49
2018-08-23T19:31:37.242Z,99749.69
2018-08-23T19:34:06.813Z,99749.69
2018-08-23T19:36:36.388Z,99753.81
2018-08-23T19:39:09.547Z,99760.32
2018-08-23T19:41:39.122Z,99760.09
2018-08-23T19:44:08.792Z,99756.08
2018-08-23T19:46:43.287Z,99757.37
2018-08-23T19:49:17.983Z,99761.11
2018-08-23T19:51:47.548Z,99763.41
2018-08-23T19:54:17.160Z,99761.23
2018-08-23T19:56:46.761Z,99761.66
2018-08-23T19:59:16.284Z,99757.83
2018-08-23T20:01:45.819Z,99767.07
2018-08-23T20:04:15.311Z,99764.30
2018-08-23T20:06:44.890Z,99774.06
2018-08-23T20:09:14.484Z,99644.11
2018-08-23T20:11:44.043Z,99771.63
2018-08-23T20:14:13.611Z,99782.66
2018-08-23T20:16:43.158Z,99777.30
2018-08-23T20:19:12.691Z,99788.80
2018-08-23T20:21:42.252Z,99791.31
2018-08-23T20:24:11.835Z,99795.42
2018-08-23T20:26:41.459Z,99792.66
2018-08-23T20:29:10.959Z,99784.74
2018-08-23T20:31:40.476Z,99795.84
2018-08-23T20:34:10.025Z,99794.05
2018-08-23T20:36:39.577Z,99790.63
2018-08-23T20:39:12.000Z,99796.34
2018-08-23T20:41:41.736Z,99795.77
2018-08-23T20:44:11.267Z,99793.17
2018-08-23T20:46:41.254Z,99791.79
2018-08-23T20:49:11.142Z,99796.08
2018-08-23T20:51:40.840Z,99788.93
2018-08-23T20:54:10.353Z,99798.23
2018-08-23T20:56:39.935Z,99800.02
2018-08-23T20:59:09.413Z,99800.78
2018-08-23T21:01:38.939Z,99793.77
2018-08-23T21:04:08.624Z,99797.43
2018-08-23T21:06:38.071Z,99799.44
2018-08-23T21:09:10.192Z,99795.14
2018-08-23T21:11:40.031Z,99793.90
2018-08-23T21:14:10.354Z,99792.10
2018-08-23T21:16:39.904Z,99797.01
2018-08-23T21:19:09.603Z,99799.42
2018-08-23T21:21:39.151Z,99805.27
2018-08-23T21:24:08.717Z,99800.70
2018-08-23T21:26:38.267Z,99803.77
2018-08-23T21:29:07.861Z,99802.87
2018-08-23T21:31:37.412Z,99800.34
2018-08-23T21:34:06.971Z,99801.94
2018-08-23T21:36:36.561Z,99808.09
2018-08-23T21:39:08.191Z,99805.00
2018-08-23T21:41:37.749Z,99805.39
2018-08-23T21:44:07.288Z,99813.26
2018-08-23T21:46:36.763Z,99812.19
2018-08-23T21:49:06.319Z,99813.80
2018-08-23T21:51:35.944Z,99809.30
2018-08-23T21:54:05.570Z,99812.80
2018-08-23T21:56:35.065Z,99815.45
2018-08-23T21:59:04.659Z,99808.69
2018-08-23T22:01:34.248Z,99803.19
2018-08-23T22:04:03.871Z,99807.20
2018-08-23T22:06:33.478Z,99807.25
2018-08-23T22:09:03.105Z,99811.77
2018-08-23T22:11:32.606Z,99808.94
2018-08-23T22:14:02.236Z,99804.67
2018-08-23T22:16:31.720Z,99806.86
2018-08-23T22:19:01.313Z,99803.42
2018-08-23T22:21:30.882Z,99806.55
2018-08-23T22:24:00.436Z,99809.19
2018-08-23T22:26:29.967Z,99803.42
2018-08-23T22:28:59.507Z,99796.58
2018-08-23T22:31:28.999Z,99803.58
2018-08-23T22:33:58.514Z,99801.25
2018-08-23T22:36:28.072Z,99799.86
2018-08-23T22:38:57.559Z,99803.63
2018-08-23T22:41:27.103Z,99797.80
2018-08-23T22:43:56.651Z,99791.52
2018-08-23T22:46:26.184Z,99795.04
2018-08-23T22:48:55.725Z,99800.24
2018-08-23T22:51:25.355Z,99794.98
2018-08-23T22:53:54.988Z,99791.15
2018-08-23T22:56:24.552Z,99790.72
2018-08-23T22:58:54.055Z,99790.00
2018-08-23T23:01:23.706Z,99788.61
2018-08-23T23:03:58.310Z,99787.23
2018-08-23T23:06:27.943Z,99781.07
2018-08-23T23:08:57.529Z,99788.78
2018-08-23T23:11:27.074Z,99786.66
2018-08-23T23:13:56.664Z,99788.86
2018-08-23T23:16:26.484Z,99795.69
2018-08-23T23:18:55.975Z,99780.81
2018-08-23T23:21:25.508Z,99776.80
2018-08-23T23:23:55.023Z,99785.83
2018-08-23T23:26:24.518Z,99780.66
2018-08-23T23:28:54.087Z,99777.69
2018-08-23T23:31:23.673Z,99779.14
2018-08-23T23:33:53.186Z,99772.87
2018-08-23T23:36:22.706Z,99779.97
2018-08-23T23:38:52.240Z,99779.87
2018-08-23T23:41:21.728Z,99778.17
2018-08-23T23:43:51.299Z,99774.00
2018-08-23T23:46:20.840Z,99774.73
2018-08-23T23:48:50.333Z,99770.54
2018-08-23T23:51:19.919Z,99771.98
2018-08-23T23:53:49.572Z,99771.47
2018-08-23T23:56:19.139Z,99771.27
2018-08-23T23:58:48.642Z,99771.98
